createdAt,value
2023-02-24T02:12:57.802Z,87845.00
2023-02-24T02:13:57.592Z,87845.00
2023-02-24T02:14:57.470Z,87845.00
2023-02-24T02:15:57.579Z,87845.00
2023-02-24T02:16:57.367Z,87841.00
2023-02-24T02:17:57.459Z,87841.00
2023-02-24T02:18:57.307Z,87841.00
2023-02-24T02:19:57.287Z,87841.00
2023-02-24T02:20:57.205Z,87841.00
2023-02-24T02:21:57.153Z,87843.00
2023-02-24T02:22:57.097Z,87843.00
2023-02-24T02:23:57.058Z,87845.00
2023-02-24T02:24:57.008Z,87839.00
2023-02-24T02:25:56.967Z,87839.00
2023-02-24T02:26:56.898Z,87839.00
2023-02-24T02:27:56.842Z,87841.00
2023-02-24T02:28:56.801Z,87841.00
2023-02-24T02:29:56.774Z,87845.00
2023-02-24T02:30:56.768Z,87845.00
2023-02-24T02:31:56.836Z,87843.00
2023-02-24T02:32:56.665Z,87841.00
2023-02-24T02:33:56.581Z,87841.00
2023-02-24T02:34:56.558Z,87843.00
2023-02-24T02:35:56.464Z,87847.00
2023-02-24T02:36:56.434Z,87845.00
2023-02-24T02:37:56.431Z,87845.00
2023-02-24T02:38:56.319Z,87847.00
2023-02-24T02:39:56.281Z,87847.00
2023-02-24T02:40:56.225Z,87843.00
2023-02-24T02:41:56.180Z,87841.00
2023-02-24T02:42:56.134Z,87843.00
2023-02-24T02:43:56.062Z,87843.00
2023-02-24T02:44:56.282Z,87845.00
2023-02-24T02:45:56.052Z,87845.00
2023-02-24T02:46:55.908Z,87839.00
2023-02-24T02:47:55.963Z,87839.00
2023-02-24T02:48:55.824Z,87841.00
2023-02-24T02:49:55.786Z,87841.00
2023-02-24T02:50:55.736Z,87835.00
2023-02-24T07:19:46.799Z,87708.00
2023-02-24T07:20:46.910Z,87719.00
2023-02-24T07:21:46.628Z,87712.00
2023-02-24T07:22:46.561Z,87723.00
2023-02-24T07:23:46.528Z,87702.00
2023-02-24T07:24:46.663Z,87710.00
2023-02-24T07:25:46.517Z,87710.00
2023-02-24T07:26:46.330Z,87719.00
2023-02-24T07:27:46.374Z,87719.00
2023-02-24T07:28:46.239Z,87721.00
2023-02-24T07:29:46.213Z,87712.00
2023-02-24T07:30:46.277Z,87721.00
2023-02-24T07:31:46.247Z,87721.00
2023-02-24T07:32:46.253Z,87710.00
2023-02-24T07:34:45.908Z,87708.00
2023-02-24T07:35:46.006Z,87706.00
2023-02-24T07:36:45.816Z,87702.00
2023-02-24T07:37:45.800Z,87708.00
2023-02-24T08:56:49.265Z,87655.00
2023-02-24T08:57:41.499Z,87653.00
2023-02-24T08:58:41.414Z,87647.00
2023-02-24T08:59:41.436Z,87647.00
2023-02-24T09:00:41.381Z,87643.00
2023-02-24T09:01:41.254Z,87645.00
2023-02-24T09:03:41.158Z,87643.00
2023-02-24T09:04:41.240Z,87645.00
2023-02-24T09:05:41.087Z,87641.00
2023-02-24T09:06:41.681Z,87643.00
2023-02-24T09:07:40.979Z,87639.00
2023-02-24T09:08:40.942Z,87641.00
2023-02-24T09:09:40.895Z,87637.00
2023-02-24T09:10:41.049Z,87634.00
2023-02-24T09:11:41.233Z,87637.00
2023-02-24T09:12:41.349Z,87635.00
2023-02-24T09:13:41.217Z,87634.00
2023-02-24T09:14:40.693Z,87630.00
2023-02-24T09:15:40.626Z,87634.00
2023-02-24T09:16:40.701Z,87632.00
2023-02-24T09:17:40.609Z,87634.00
2023-02-24T09:18:40.537Z,87634.00
2023-02-24T09:19:40.561Z,87630.00
2023-02-24T09:20:40.507Z,87628.00
2023-02-24T09:21:40.460Z,87628.00
2023-02-24T09:22:40.428Z,87626.00
2023-02-24T09:23:40.352Z,87626.00
2023-02-24T09:24:40.319Z,87626.00
2023-02-24T09:25:40.386Z,87624.00
2023-02-24T09:26:40.345Z,87626.00
2023-02-24T09:27:40.266Z,87626.00
2023-02-24T09:28:40.224Z,87630.00
2023-02-24T09:29:40.198Z,87630.00
2023-02-24T09:30:40.214Z,87630.00
2023-02-24T09:31:40.387Z,87626.00
2023-02-24T09:32:40.346Z,87622.00
2023-02-24T09:33:40.183Z,87626.00
2023-02-24T09:34:40.143Z,87626.00
2023-02-24T09:35:40.116Z,87624.00
2023-02-24T09:36:42.345Z,87626.00
2023-02-24T09:37:40.250Z,87622.00
2023-02-24T09:38:40.223Z,87620.00
2023-02-24T09:39:40.231Z,87616.00
2023-02-24T09:40:40.289Z,87618.00
2023-02-24T09:41:40.216Z,87620.00
2023-02-24T09:42:40.192Z,87618.00
2023-02-24T09:43:40.201Z,87620.00
2023-02-24T09:44:40.199Z,87612.00
2023-02-24T09:45:40.396Z,87612.00
2023-02-24T09:46:40.308Z,87608.00
2023-02-24T09:47:40.560Z,87610.00
2023-02-24T09:48:40.192Z,87610.00
2023-02-24T09:49:41.331Z,87610.00
2023-02-24T09:51:01.564Z,87606.00
2023-02-24T09:51:41.132Z,87612.00
2023-02-24T09:52:40.192Z,87604.00
2023-02-24T09:53:41.612Z,87608.00
2023-02-24T09:54:40.113Z,87602.00
2023-02-24T09:55:41.134Z,87604.00
2023-02-24T09:56:40.077Z,87604.00
2023-02-24T09:57:40.141Z,87600.00
2023-02-24T09:58:43.978Z,87598.00
2023-02-24T09:59:40.097Z,87598.00
2023-02-24T10:00:40.113Z,87598.00
2023-02-24T10:01:40.281Z,87596.00
2023-02-24T10:02:40.136Z,87596.00
2023-02-24T10:03:40.092Z,87598.00
2023-02-24T10:04:40.086Z,87598.00
2023-02-24T10:05:40.190Z,87592.00
2023-02-24T10:06:40.097Z,87592.00
2023-02-24T10:07:40.124Z,87590.00
2023-02-24T10:08:40.125Z,87588.00
2023-02-24T10:09:40.126Z,87590.00
2023-02-24T10:10:40.099Z,87588.00
2023-02-24T10:11:40.124Z,87588.00
2023-02-24T10:12:40.235Z,87590.00
2023-02-24T10:13:40.146Z,87590.00
2023-02-24T10:14:44.019Z,87590.00
2023-02-24T10:15:40.082Z,87586.00
2023-02-24T10:16:40.242Z,87582.00
2023-02-24T10:17:41.199Z,87580.00
2023-02-24T10:18:40.108Z,87577.00
2023-02-24T10:19:40.107Z,87577.00
2023-02-24T10:20:40.695Z,87573.00
2023-02-24T10:21:40.091Z,87573.00
2023-02-24T10:22:40.041Z,87573.00
2023-02-24T10:23:40.782Z,87569.00
2023-02-24T10:24:40.636Z,87569.00
2023-02-24T10:25:40.018Z,87571.00
2023-02-24T10:26:41.666Z,87561.00
2023-02-24T10:27:40.007Z,87565.00
2023-02-24T10:28:40.040Z,87565.00
2023-02-24T10:29:40.264Z,87561.00
2023-02-24T10:30:40.030Z,87559.00
2023-02-24T10:31:40.294Z,87551.00
2023-02-24T10:32:40.047Z,87555.00
2023-02-24T10:33:39.961Z,87561.00
2023-02-24T10:34:39.965Z,87561.00
2023-02-24T10:35:40.003Z,87561.00
2023-02-24T10:36:39.974Z,87557.00
2023-02-24T10:37:39.928Z,87555.00
2023-02-24T10:38:39.948Z,87549.00
2023-02-24T10:39:39.914Z,87549.00
2023-02-24T10:40:39.905Z,87555.00
2023-02-24T10:41:39.946Z,87549.00
2023-02-24T10:42:39.931Z,87545.00
2023-02-24T10:43:39.930Z,87541.00
2023-02-24T10:44:39.932Z,87543.00
2023-02-24T10:45:39.939Z,87541.00
2023-02-24T10:46:41.928Z,87535.00
2023-02-24T10:47:40.085Z,87539.00
2023-02-24T10:48:42.434Z,87539.00
2023-02-24T10:49:40.316Z,87539.00
2023-02-24T10:50:53.808Z,87535.00
2023-02-24T10:51:41.261Z,87535.00
2023-02-24T10:52:40.308Z,87539.00
2023-02-24T10:53:40.272Z,87535.00
2023-02-24T10:54:40.241Z,87539.00
2023-02-24T10:55:40.281Z,87532.00
2023-02-24T10:56:40.242Z,87528.00
2023-02-24T10:57:50.353Z,87528.00
2023-02-24T10:58:41.019Z,87537.00
2023-02-24T10:59:40.172Z,87535.00
2023-02-24T11:00:40.116Z,87526.00
2023-02-24T11:01:40.141Z,87526.00
2023-02-24T11:02:40.157Z,87533.00
2023-02-24T11:03:40.026Z,87528.00
2023-02-24T11:04:40.621Z,87528.00
2023-02-24T11:05:40.002Z,87530.00
2023-02-24T11:06:39.911Z,87520.00
2023-02-24T11:07:39.884Z,87526.00
2023-02-24T11:08:39.918Z,87524.00
2023-02-24T11:09:39.795Z,87526.00
2023-02-24T11:10:39.786Z,87524.00
2023-02-24T11:11:39.741Z,87526.00
2023-02-24T11:12:39.674Z,87545.00
2023-02-24T11:13:39.739Z,87520.00
2023-02-24T11:14:40.632Z,87526.00
2023-02-24T11:15:39.633Z,87528.00
2023-02-24T11:16:39.489Z,87516.00
2023-02-24T11:17:39.485Z,87520.00
2023-02-24T11:18:39.431Z,87520.00
2023-02-24T11:19:39.374Z,87518.00
2023-02-24T11:20:49.076Z,87514.00
2023-02-24T11:21:41.905Z,87516.00
2023-02-24T11:28:39.011Z,87510.00
2023-02-24T11:29:38.969Z,87514.00
2023-02-24T11:30:38.976Z,87498.00
2023-02-24T11:31:39.015Z,87506.00
2023-02-24T11:35:38.712Z,87492.00
2023-02-24T11:36:38.731Z,87494.00
2023-02-24T11:37:39.599Z,87490.00
2023-02-24T11:38:38.474Z,87492.00
2023-02-24T11:39:38.433Z,87488.00
2023-02-24T11:40:38.385Z,87484.00
2023-02-24T11:41:38.302Z,87484.00
2023-02-24T11:42:38.331Z,87494.00
2023-02-24T11:43:38.213Z,87496.00
2023-02-24T11:44:38.140Z,87484.00
2023-02-24T11:45:38.177Z,87488.00
2023-02-24T11:46:38.240Z,87482.00
2023-02-24T11:47:37.988Z,87477.00
2023-02-24T11:48:38.068Z,87477.00
2023-02-24T11:49:37.897Z,87473.00
2023-02-24T11:50:37.943Z,87478.00
2023-02-24T11:51:37.791Z,87471.00
2023-02-24T11:52:37.735Z,87467.00
2023-02-24T11:53:37.881Z,87452.00
2023-02-24T11:54:37.688Z,87467.00
2023-02-24T11:55:37.598Z,87471.00
2023-02-24T11:56:37.526Z,87463.00
2023-02-24T11:57:37.483Z,87467.00
2023-02-24T11:58:37.561Z,87467.00
2023-02-24T11:59:37.360Z,87450.00
2023-02-24T12:00:37.308Z,87473.00
2023-02-24T12:01:37.326Z,87450.00
2023-02-24T12:02:37.193Z,87454.00
2023-02-24T12:03:37.285Z,87456.00
2023-02-24T12:04:37.056Z,87456.00
2023-02-24T12:05:37.254Z,87450.00
2023-02-24T12:06:36.991Z,87463.00
2023-02-24T12:07:36.907Z,87432.00
2023-02-24T12:08:36.852Z,87444.00
2023-02-24T12:09:36.786Z,87454.00
2023-02-24T12:10:36.710Z,87446.00
2023-02-24T12:11:36.679Z,87430.00
2023-02-24T12:12:36.611Z,87428.00
2023-02-24T12:13:36.539Z,87436.00
2023-02-24T12:14:36.512Z,87436.00
2023-02-24T12:15:36.417Z,87424.00
2023-02-24T12:16:36.454Z,87430.00
2023-02-24T12:17:36.292Z,87430.00
2023-02-24T12:18:36.283Z,87420.00
2023-02-24T12:19:37.181Z,87428.00
2023-02-24T12:20:36.162Z,87426.00
2023-02-24T12:21:36.126Z,87434.00
2023-02-24T12:22:36.022Z,87424.00
2023-02-24T12:23:35.989Z,87403.00
2023-02-24T12:24:35.919Z,87415.00
2023-02-24T12:25:35.880Z,87415.00
2023-02-24T12:26:36.208Z,87411.00
2023-02-24T12:27:35.741Z,87407.00
2023-02-24T12:28:36.713Z,87411.00
2023-02-24T12:31:35.549Z,87413.00
2023-02-24T12:32:35.603Z,87403.00
2023-02-24T12:33:35.419Z,87397.00
2023-02-24T12:34:35.351Z,87403.00
2023-02-24T12:35:35.292Z,87395.00
2023-02-24T12:36:35.264Z,87397.00
2023-02-24T12:37:35.189Z,87391.00
2023-02-24T12:38:35.144Z,87407.00
2023-02-24T12:39:35.079Z,87377.00
2023-02-24T12:40:35.016Z,87407.00
2023-02-24T12:41:37.265Z,87393.00
2023-02-24T12:42:34.946Z,87389.00
2023-02-24T12:43:34.898Z,87387.00
2023-02-24T12:44:34.824Z,87381.00
2023-02-24T12:45:34.810Z,87381.00
2023-02-24T12:46:34.780Z,87385.00
2023-02-24T12:47:34.716Z,87389.00
2023-02-24T12:48:34.642Z,87393.00
2023-02-24T12:49:34.569Z,87389.00
2023-02-24T12:50:34.532Z,87387.00
2023-02-24T12:51:34.512Z,87385.00
2023-02-24T12:52:34.416Z,87383.00
2023-02-24T12:53:34.425Z,87387.00
2023-02-24T12:54:34.312Z,87385.00
2023-02-24T12:55:34.257Z,87381.00
2023-02-24T12:56:34.205Z,87367.00
2023-02-24T12:57:34.125Z,87375.00
2023-02-24T12:58:34.129Z,87377.00
2023-02-24T12:59:33.996Z,87371.00
2023-02-24T13:00:33.945Z,87379.00
2023-02-24T13:01:33.962Z,87371.00
2023-02-24T13:02:33.881Z,87373.00
2023-02-24T13:03:33.770Z,87369.00
2023-02-24T13:04:33.736Z,87371.00
2023-02-24T13:05:33.667Z,87367.00
2023-02-24T13:06:33.569Z,87366.00
2023-02-24T13:07:33.535Z,87369.00
2023-02-24T13:08:33.521Z,87362.00
2023-02-24T13:09:33.389Z,87360.00
2023-02-24T13:10:33.331Z,87356.00
2023-02-24T13:11:33.296Z,87350.00
2023-02-24T13:12:33.258Z,87350.00
2023-02-24T13:13:33.178Z,87348.00
2023-02-24T13:14:33.108Z,87348.00
2023-02-24T13:15:33.052Z,87354.00
2023-02-24T13:16:33.065Z,87350.00
2023-02-24T13:17:32.992Z,87352.00
2023-02-24T13:18:32.871Z,87342.00
2023-02-24T13:19:32.806Z,87344.00
2023-02-24T13:20:32.744Z,87348.00
2023-02-24T13:21:32.723Z,87340.00
2023-02-24T13:22:32.621Z,87342.00
2023-02-24T13:23:32.567Z,87342.00
2023-02-24T13:24:32.520Z,87346.00
2023-02-24T13:25:32.438Z,87346.00
2023-02-24T13:26:32.407Z,87344.00
2023-02-24T13:27:32.311Z,87342.00
2023-02-24T13:28:32.230Z,87340.00
2023-02-24T13:29:32.154Z,87336.00
2023-02-24T13:30:32.195Z,87340.00
2023-02-24T13:31:32.086Z,87340.00
2023-02-24T13:32:32.211Z,87336.00
2023-02-24T13:33:31.911Z,87336.00
2023-02-24T13:34:31.864Z,87332.00
2023-02-24T13:35:31.790Z,87328.00
2023-02-24T13:36:31.717Z,87330.00
2023-02-24T13:37:31.694Z,87336.00
2023-02-24T13:38:31.590Z,87334.00
2023-02-24T13:39:31.561Z,87334.00
2023-02-24T13:40:31.500Z,87326.00
2023-02-24T13:41:31.436Z,87324.00
2023-02-24T13:42:31.334Z,87328.00
2023-02-24T13:43:31.306Z,87326.00
2023-02-24T13:44:31.222Z,87322.00
2023-02-24T13:45:31.164Z,87324.00
2023-02-24T13:46:31.128Z,87322.00
2023-02-24T13:47:31.049Z,87324.00
2023-02-24T13:48:30.991Z,87322.00
2023-02-24T13:49:30.897Z,87320.00
2023-02-24T13:50:30.849Z,87318.00
2023-02-24T13:51:30.758Z,87318.00
2023-02-24T13:52:30.698Z,87318.00
2023-02-24T13:53:30.635Z,87316.00
2023-02-24T13:54:30.565Z,87318.00
2023-02-24T13:55:30.486Z,87313.00
2023-02-24T13:56:30.434Z,87313.00
2023-02-24T13:57:30.375Z,87311.00
2023-02-24T13:58:30.304Z,87307.00
2023-02-24T13:59:30.234Z,87313.00
2023-02-24T14:00:30.220Z,87313.00
2023-02-24T14:01:30.112Z,87309.00
2023-02-24T14:02:30.081Z,87307.00
2023-02-24T14:03:29.964Z,87309.00
2023-02-24T14:04:29.917Z,87305.00
2023-02-24T14:05:29.884Z,87311.00
2023-02-24T14:06:29.770Z,87303.00
2023-02-24T14:07:29.696Z,87301.00
2023-02-24T14:08:29.650Z,87307.00
2023-02-24T14:09:29.560Z,87297.00
2023-02-24T14:10:29.539Z,87303.00
2023-02-24T14:11:29.457Z,87305.00
2023-02-24T14:12:29.389Z,87301.00
2023-02-24T14:13:29.308Z,87301.00
2023-02-24T14:14:29.256Z,87301.00
2023-02-24T14:15:29.182Z,87301.00
2023-02-24T14:16:29.168Z,87297.00
2023-02-24T14:17:29.010Z,87293.00
2023-02-24T14:18:29.203Z,87293.00
2023-02-24T14:19:28.882Z,87291.00
2023-02-24T14:20:28.801Z,87293.00
2023-02-24T14:21:28.762Z,87285.00
2023-02-24T14:22:28.657Z,87285.00
2023-02-24T14:23:28.609Z,87289.00
2023-02-24T14:24:28.521Z,87281.00
2023-02-24T14:25:28.458Z,87281.00
2023-02-24T14:26:28.410Z,87269.00
2023-02-24T14:27:28.371Z,87277.00
2023-02-24T14:28:28.280Z,87279.00
2023-02-24T14:29:28.225Z,87271.00
2023-02-24T14:30:28.176Z,87269.00
2023-02-24T14:31:28.256Z,87271.00
2023-02-24T14:32:28.169Z,87273.00
2023-02-24T14:33:27.984Z,87269.00
2023-02-24T14:34:27.895Z,87265.00
2023-02-24T14:35:27.808Z,87260.00
2023-02-24T14:36:27.765Z,87260.00
2023-02-24T14:37:27.707Z,87256.00
2023-02-24T14:38:27.672Z,87254.00
2023-02-24T14:39:27.580Z,87252.00
2023-02-24T14:40:27.547Z,87254.00
2023-02-24T14:41:27.460Z,87252.00
2023-02-24T14:42:27.385Z,87256.00
2023-02-24T14:43:27.337Z,87254.00
2023-02-24T14:44:27.246Z,87248.00
2023-02-24T14:45:27.194Z,87248.00
2023-02-24T14:46:27.324Z,87248.00
2023-02-24T14:47:27.072Z,87246.00
2023-02-24T14:48:27.016Z,87236.00
2023-02-24T14:49:26.930Z,87240.00
2023-02-24T14:50:26.870Z,87240.00
2023-02-24T14:51:26.828Z,87238.00
2023-02-24T14:52:26.742Z,87238.00
2023-02-24T14:53:26.701Z,87238.00
2023-02-24T14:54:26.627Z,87242.00
2023-02-24T14:55:26.551Z,87240.00
2023-02-24T14:56:26.555Z,87238.00
2023-02-24T14:57:26.417Z,87240.00
2023-02-24T14:58:26.344Z,87234.00
2023-02-24T14:59:26.294Z,87236.00
2023-02-24T15:00:26.220Z,87234.00
2023-02-24T15:01:26.732Z,87236.00
2023-02-24T15:02:26.128Z,87232.00
2023-02-24T15:03:26.207Z,87230.00
2023-02-24T15:04:25.995Z,87236.00
2023-02-24T15:05:25.949Z,87234.00
2023-02-24T15:06:25.873Z,87230.00
2023-02-24T15:07:25.803Z,87230.00
2023-02-24T16:25:21.493Z,87166.00
2023-02-24T16:26:21.842Z,87166.00
2023-02-24T16:27:21.389Z,87164.00
2023-02-24T16:28:21.336Z,87170.00
2023-02-24T16:29:21.296Z,87164.00
2023-02-24T16:30:22.755Z,87162.00
2023-02-24T16:31:21.360Z,87166.00
2023-02-24T16:32:21.373Z,87166.00
2023-02-24T16:33:21.214Z,87168.00
2023-02-24T16:34:21.023Z,87164.00
2023-02-24T16:35:21.006Z,87162.00
2023-02-24T16:36:21.785Z,87158.00
2023-02-24T16:37:20.907Z,87160.00
2023-02-24T16:38:20.864Z,87160.00
2023-02-24T16:39:20.803Z,87160.00
2023-02-24T16:40:20.758Z,87164.00
2023-02-24T16:41:20.746Z,87160.00
2023-02-24T16:42:21.921Z,87160.00
2023-02-24T16:43:20.614Z,87160.00
2023-02-24T16:44:20.561Z,87158.00
2023-02-24T16:45:20.517Z,87156.00
2023-02-24T16:46:21.254Z,87154.00
2023-02-24T16:47:20.401Z,87153.00
2023-02-24T16:48:20.390Z,87154.00
2023-02-24T16:49:20.378Z,87151.00
2023-02-24T16:50:20.255Z,87153.00
2023-02-24T16:51:20.220Z,87154.00
2023-02-24T16:52:20.162Z,87154.00
2023-02-24T16:53:20.090Z,87153.00
2023-02-24T16:54:21.678Z,87154.00
2023-02-24T16:55:19.988Z,87149.00
2023-02-24T16:56:20.267Z,87149.00
2023-02-24T16:57:19.899Z,87149.00
2023-02-24T16:58:19.844Z,87147.00
2023-02-24T16:59:19.805Z,87151.00
2023-02-24T17:00:20.130Z,87145.00
2023-02-24T17:01:19.744Z,87149.00
2023-02-24T17:02:19.674Z,87147.00
2023-02-24T17:03:19.629Z,87145.00
2023-02-24T17:04:19.553Z,87149.00
2023-02-24T17:05:19.542Z,87145.00
2023-02-24T17:06:22.112Z,87151.00
2023-02-24T17:07:19.446Z,87153.00
2023-02-24T17:08:19.376Z,87151.00
2023-02-24T17:09:19.358Z,87151.00
2023-02-24T17:10:19.281Z,87153.00
2023-02-24T17:11:19.231Z,87153.00
2023-02-24T17:12:21.603Z,87153.00
2023-02-24T17:13:19.388Z,87154.00
2023-02-24T17:14:19.330Z,87151.00
2023-02-24T17:15:19.280Z,87147.00
2023-02-24T17:16:19.377Z,87149.00
2023-02-24T17:17:19.226Z,87147.00
2023-02-24T17:18:21.412Z,87147.00
2023-02-24T17:19:19.165Z,87153.00
2023-02-24T17:20:19.033Z,87151.00
2023-02-24T17:21:19.042Z,87145.00
2023-02-24T17:22:18.947Z,87143.00
2023-02-24T17:23:18.908Z,87147.00
2023-02-24T17:24:18.829Z,87153.00
2023-02-24T17:25:18.808Z,87145.00
2023-02-24T17:26:18.773Z,87147.00
2023-02-24T17:27:18.700Z,87151.00
2023-02-24T17:28:18.640Z,87147.00
2023-02-24T17:29:18.587Z,87149.00
2023-02-24T17:30:18.523Z,87151.00
2023-02-24T17:31:18.650Z,87151.00
2023-02-24T17:32:18.709Z,87149.00
2023-02-24T17:33:18.392Z,87151.00
2023-02-24T17:34:18.321Z,87151.00
2023-02-24T17:35:18.277Z,87151.00
2023-02-24T17:36:18.251Z,87153.00
2023-02-24T17:37:18.170Z,87153.00
2023-02-24T17:38:18.122Z,87153.00
2023-02-24T17:39:18.083Z,87147.00
2023-02-24T17:40:17.978Z,87149.00
2023-02-24T17:41:17.969Z,87145.00
2023-02-24T17:42:17.894Z,87145.00
2023-02-24T17:43:17.857Z,87147.00
2023-02-24T17:44:17.781Z,87143.00
2023-02-24T17:45:17.752Z,87145.00
2023-02-24T17:46:17.777Z,87139.00
2023-02-24T17:47:17.666Z,87137.00
2023-02-24T17:48:17.566Z,87139.00
2023-02-24T17:49:17.570Z,87141.00
2023-02-24T17:50:17.476Z,87137.00
2023-02-24T17:51:17.461Z,87135.00
2023-02-24T17:52:17.396Z,87133.00
2023-02-24T17:53:17.326Z,87135.00
2023-02-24T17:54:17.276Z,87135.00
2023-02-24T17:55:17.232Z,87135.00
2023-02-24T17:56:17.157Z,87133.00
2023-02-24T17:57:17.120Z,87133.00
2023-02-24T17:58:17.052Z,87127.00
2023-02-24T17:59:17.005Z,87127.00
2023-02-24T18:00:16.940Z,87125.00
2023-02-24T18:01:16.877Z,87125.00
2023-02-24T18:02:16.918Z,87125.00
2023-02-24T18:03:16.836Z,87119.00
2023-02-24T18:04:16.727Z,87121.00
2023-02-24T18:05:16.691Z,87121.00
2023-02-24T18:06:16.626Z,87119.00
2023-02-24T18:07:16.600Z,87119.00
2023-02-24T18:08:16.534Z,87121.00
2023-02-24T18:09:16.486Z,87119.00
2023-02-24T18:10:16.433Z,87113.00
2023-02-24T18:11:16.380Z,87105.00
2023-02-24T18:12:16.345Z,87113.00
2023-02-24T18:13:16.323Z,87111.00
2023-02-24T18:14:16.253Z,87115.00
2023-02-24T18:15:16.210Z,87109.00
2023-02-24T18:16:16.248Z,87109.00
2023-02-24T18:17:16.129Z,87111.00
2023-02-24T18:18:16.057Z,87111.00
2023-02-24T18:19:15.997Z,87107.00
2023-02-24T18:20:15.963Z,87109.00
2023-02-24T18:21:15.918Z,87109.00
2023-02-24T18:22:15.875Z,87103.00
2023-02-24T18:23:15.826Z,87107.00
2023-02-24T18:24:15.750Z,87109.00
2023-02-24T18:25:15.718Z,87101.00
2023-02-24T18:26:15.660Z,87099.00
2023-02-24T18:27:15.595Z,87099.00
2023-02-24T18:28:15.561Z,87101.00
2023-02-24T18:29:15.488Z,87092.00
2023-02-24T18:30:15.433Z,87096.00
2023-02-24T18:31:15.479Z,87098.00
2023-02-24T18:32:15.602Z,87092.00
2023-02-24T18:33:15.406Z,87092.00
2023-02-24T18:34:15.240Z,87092.00
2023-02-24T18:35:15.210Z,87090.00
2023-02-24T18:36:15.165Z,87086.00
2023-02-24T18:37:15.161Z,87088.00
2023-02-24T18:38:15.096Z,87086.00
2023-02-24T18:39:15.015Z,87084.00
2023-02-24T18:40:14.983Z,87084.00
2023-02-24T18:41:14.932Z,87082.00
2023-02-24T18:42:14.863Z,87084.00
2023-02-24T18:43:14.830Z,87084.00
2023-02-24T18:44:14.782Z,87084.00
2023-02-24T18:45:14.708Z,87084.00
2023-02-24T18:46:14.729Z,87084.00
2023-02-24T18:47:14.617Z,87084.00
2023-02-24T18:48:14.585Z,87082.00
2023-02-24T18:49:14.544Z,87082.00
2023-02-24T18:50:14.470Z,87074.00
2023-02-24T18:51:14.451Z,87078.00
2023-02-24T18:52:14.368Z,87074.00
2023-02-24T18:53:14.327Z,87076.00
2023-02-24T18:54:14.288Z,87076.00
2023-02-24T18:55:14.252Z,87076.00
2023-02-24T18:56:14.167Z,87076.00
2023-02-24T18:57:14.122Z,87074.00
2023-02-24T18:58:14.136Z,87072.00
2023-02-24T18:59:14.029Z,87068.00
2023-02-24T19:00:14.358Z,87074.00
2023-02-24T19:01:13.890Z,87068.00
2023-02-24T19:02:13.882Z,87072.00
2023-02-24T19:03:13.868Z,87072.00
2023-02-24T19:04:13.761Z,87066.00
2023-02-24T19:05:13.698Z,87072.00
2023-02-24T19:06:13.676Z,87068.00
2023-02-24T19:07:13.655Z,87068.00
2023-02-24T19:08:13.553Z,87066.00
2023-02-24T19:09:13.554Z,87060.00
2023-02-24T19:10:13.453Z,87070.00
2023-02-24T19:11:13.404Z,87070.00
2023-02-24T19:12:13.370Z,87068.00
2023-02-24T19:13:13.284Z,87070.00
2023-02-24T19:14:13.257Z,87068.00
2023-02-24T19:15:13.187Z,87072.00
2023-02-24T19:16:13.183Z,87070.00
2023-02-24T19:17:13.125Z,87074.00
2023-02-24T19:18:13.074Z,87070.00
2023-02-24T19:19:13.049Z,87072.00
2023-02-24T19:20:12.969Z,87076.00
2023-02-24T19:21:12.922Z,87074.00
2023-02-24T19:22:12.879Z,87078.00
2023-02-24T19:23:12.809Z,87076.00
2023-02-24T19:24:12.798Z,87076.00
2023-02-24T19:25:12.696Z,87074.00
2023-02-24T19:26:12.783Z,87074.00
2023-02-24T19:27:12.617Z,87074.00
2023-02-24T19:28:12.546Z,87076.00
2023-02-24T19:29:12.516Z,87074.00
2023-02-24T19:30:12.430Z,87076.00
2023-02-24T19:31:12.443Z,87074.00
2023-02-24T19:32:12.517Z,87068.00
2023-02-24T19:33:12.348Z,87072.00
2023-02-24T19:34:12.256Z,87070.00
2023-02-24T19:35:12.182Z,87070.00
2023-02-24T19:36:12.130Z,87068.00
2023-02-24T19:37:12.101Z,87072.00
2023-02-24T19:38:12.012Z,87070.00
2023-02-24T19:39:11.969Z,87068.00
2023-02-24T19:40:11.919Z,87068.00
2023-02-24T19:41:11.863Z,87066.00
2023-02-24T19:42:11.811Z,87066.00
2023-02-24T19:43:11.761Z,87064.00
2023-02-24T19:44:11.733Z,87064.00
2023-02-24T19:45:11.647Z,87064.00
2023-02-24T19:46:11.710Z,87062.00
2023-02-24T19:47:11.569Z,87062.00
2023-02-24T19:48:11.500Z,87062.00
2023-02-24T19:49:11.484Z,87058.00
2023-02-24T19:50:11.447Z,87058.00
2023-02-24T19:51:11.357Z,87062.00
2023-02-24T19:52:11.305Z,87054.00
2023-02-24T19:53:11.273Z,87052.00
2023-02-24T19:54:11.183Z,87052.00
2023-02-24T19:55:11.154Z,87056.00
2023-02-24T19:56:11.102Z,87054.00
2023-02-24T19:57:11.042Z,87052.00
2023-02-24T19:58:10.996Z,87052.00
2023-02-24T19:59:10.934Z,87047.00
2023-02-24T20:00:10.906Z,87047.00
2023-02-24T20:01:11.811Z,87051.00
2023-02-24T20:02:10.784Z,87051.00
2023-02-24T20:03:10.711Z,87051.00
2023-02-24T20:04:10.687Z,87054.00
2023-02-24T20:05:10.728Z,87052.00
2023-02-24T20:06:10.594Z,87052.00
2023-02-24T20:07:10.558Z,87058.00
2023-02-24T20:08:10.473Z,87058.00
2023-02-24T20:09:10.429Z,87062.00
2023-02-24T20:10:10.426Z,87058.00
2023-02-24T20:11:10.337Z,87060.00
2023-02-24T20:12:10.284Z,87058.00
2023-02-24T20:13:10.229Z,87056.00
2023-02-24T20:14:10.175Z,87056.00
2023-02-24T20:15:10.139Z,87058.00
2023-02-24T20:16:10.157Z,87056.00
2023-02-24T20:17:10.125Z,87056.00
2023-02-24T20:18:10.003Z,87056.00
2023-02-24T20:19:09.968Z,87052.00
2023-02-24T20:20:09.929Z,87051.00
2023-02-24T20:21:09.868Z,87043.00
2023-02-24T20:22:09.792Z,87047.00
2023-02-24T20:23:09.751Z,87045.00
2023-02-24T20:24:10.366Z,87045.00
2023-02-24T20:25:09.678Z,87051.00
2023-02-24T20:26:09.601Z,87047.00
2023-02-24T20:27:09.545Z,87039.00
2023-02-24T20:28:09.496Z,87037.00
2023-02-24T20:29:09.451Z,87039.00
2023-02-24T20:30:09.400Z,87039.00
2023-02-24T20:31:09.439Z,87045.00
2023-02-24T20:32:09.389Z,87041.00
2023-02-24T20:33:09.246Z,87037.00
2023-02-24T20:34:09.199Z,87035.00
2023-02-24T20:35:09.219Z,87037.00
2023-02-24T20:36:09.110Z,87037.00
2023-02-24T20:37:09.059Z,87029.00
2023-02-24T20:38:08.998Z,87031.00
2023-02-24T20:39:08.943Z,87025.00
2023-02-24T20:40:08.905Z,87031.00
2023-02-24T20:41:08.848Z,87033.00
2023-02-24T20:42:08.769Z,87031.00
2023-02-24T20:43:08.732Z,87031.00
2023-02-24T20:44:08.692Z,87031.00
2023-02-24T20:45:08.650Z,87031.00
2023-02-24T20:46:08.637Z,87031.00
2023-02-24T20:47:08.523Z,87027.00
2023-02-24T20:48:08.493Z,87025.00
2023-02-24T20:49:08.420Z,87023.00
2023-02-24T20:50:08.371Z,87027.00
2023-02-24T20:51:08.363Z,87025.00
2023-02-24T20:52:08.318Z,87029.00
2023-02-24T20:53:08.226Z,87029.00
2023-02-24T20:54:08.190Z,87027.00
2023-02-24T20:55:08.136Z,87021.00
2023-02-24T20:56:08.107Z,87017.00
2023-02-24T20:57:08.043Z,87013.00
2023-02-24T20:58:07.979Z,87009.00
2023-02-24T20:59:07.954Z,87007.00
2023-02-24T21:00:07.906Z,87009.00
2023-02-24T21:01:07.886Z,87007.00
2023-02-24T21:02:07.808Z,87003.00
2023-02-24T21:03:07.840Z,87011.00
2023-02-24T21:04:07.706Z,87009.00
2023-02-24T21:05:07.717Z,87005.00
2023-02-24T21:06:10.175Z,87003.00
2023-02-24T21:07:07.585Z,87003.00
2023-02-24T21:08:07.499Z,87003.00
2023-02-24T21:09:07.466Z,87003.00
2023-02-24T21:10:07.502Z,87007.00
2023-02-24T21:11:09.897Z,87003.00
2023-02-24T21:12:07.307Z,87001.00